Time;durP1;ratioP1;P1;durP2;ratioP2;P2;SDS_P1;SDS_P2;PMS_P1;PMS_P2;Temp;Humidity;BMP_temperature;BMP_pressure;BME280_temperature;BME280_humidity;BME280_pressure;Samples;Min_cycle;Max_cycle;Signal;HPM_P1;HPM_P2
2022/07/10 00:00:36;;;;;;;7.43;1.50;;;;;;;;;;4986326;28;20289;-74
2022/07/10 00:03:03;;;;;;;6.53;1.70;;;;;;;;;;4982024;28;21692;-74
2022/07/10 00:05:30;;;;;;;5.23;1.20;;;;;;;;;;4984189;28;20709;-74
2022/07/10 00:07:57;;;;;;;5.33;1.60;;;;;;;;;;4998586;28;20314;-74
2022/07/10 00:10:24;;;;;;;3.63;1.50;;;;;;;;;;5002390;28;20293;-74
2022/07/10 00:12:50;;;;;;;6.10;1.30;;;;;;;;;;4998893;28;20318;-74
2022/07/10 00:15:17;;;;;;;5.67;1.80;;;;;;;;;;5001447;28;20239;-74
2022/07/10 00:17:44;;;;;;;4.90;1.43;;;;;;;;;;4998129;28;20231;-74
2022/07/10 00:20:11;;;;;;;3.03;1.27;;;;;;;;;;5000735;28;20312;-74
2022/07/10 00:22:38;;;;;;;4.27;1.40;;;;;;;;;;4999136;28;20226;-75
2022/07/10 00:25:05;;;;;;;8.80;1.57;;;;;;;;;;5002477;28;20641;-75
2022/07/10 00:27:32;;;;;;;5.33;1.67;;;;;;;;;;4982420;28;20258;-74
2022/07/10 00:29:59;;;;;;;4.73;1.37;;;;;;;;;;5000867;28;20258;-75
2022/07/10 00:32:26;;;;;;;3.73;1.37;;;;;;;;;;4984586;28;20306;-74
2022/07/10 00:34:52;;;;;;;5.10;1.57;;;;;;;;;;4980437;28;20703;-74
2022/07/10 00:37:21;;;;;;;3.07;1.30;;;;;;;;;;4976080;28;20298;-74
2022/07/10 00:39:48;;;;;;;4.57;1.40;;;;;;;;;;5000759;28;20243;-74
2022/07/10 00:42:15;;;;;;;5.20;1.50;;;;;;;;;;4999072;28;20223;-74
2022/07/10 00:44:42;;;;;;;5.23;1.57;;;;;;;;;;5001317;28;20295;-75
2022/07/10 00:47:09;;;;;;;5.83;1.37;;;;;;;;;;4999692;28;20231;-74
2022/07/10 00:49:37;;;;;;;6.27;1.30;;;;;;;;;;5001309;28;20227;-74
2022/07/10 00:52:05;;;;;;;5.07;1.40;;;;;;;;;;4982090;28;20820;-74
2022/07/10 00:54:32;;;;;;;4.57;1.73;;;;;;;;;;4984708;28;20737;-74
2022/07/10 00:56:59;;;;;;;4.40;1.30;;;;;;;;;;4987876;28;245325;-75
2022/07/10 00:59:26;;;;;;;4.17;1.30;;;;;;;;;;4986746;28;20572;-74
2022/07/10 01:01:53;;;;;;;6.20;1.40;;;;;;;;;;4984521;28;20223;-74
2022/07/10 01:04:20;;;;;;;6.03;1.70;;;;;;;;;;4981309;28;20313;-74
2022/07/10 01:06:47;;;;;;;7.47;1.60;;;;;;;;;;4999520;28;20548;-74
2022/07/10 01:09:14;;;;;;;5.50;1.50;;;;;;;;;;4999170;28;20231;-74
2022/07/10 01:11:40;;;;;;;6.57;1.60;;;;;;;;;;4993883;28;20358;-74
2022/07/10 01:14:07;;;;;;;10.17;2.10;;;;;;;;;;4968913;28;24989;-74
2022/07/10 01:16:34;;;;;;;3.87;1.47;;;;;;;;;;4996839;28;21065;-73
2022/07/10 01:19:01;;;;;;;3.87;1.13;;;;;;;;;;4997704;28;20250;-74
2022/07/10 01:21:31;;;;;;;8.30;1.50;;;;;;;;;;4983522;28;20823;-74
2022/07/10 01:23:58;;;;;;;6.50;1.50;;;;;;;;;;4967006;28;20227;-74
2022/07/10 01:26:25;;;;;;;4.83;1.27;;;;;;;;;;4988490;28;20255;-74
2022/07/10 01:29:09;;;;;;;4.00;1.03;;;;;;;;;;4960495;28;217584;-74
2022/07/10 01:31:36;;;;;;;5.07;1.23;;;;;;;;;;4997926;28;20293;-74
2022/07/10 01:34:21;;;;;;;4.63;1.30;;;;;;;;;;4998440;28;20246;-74
2022/07/10 01:36:47;;;;;;;7.27;1.40;;;;;;;;;;4983539;28;20262;-74
2022/07/10 01:39:32;;;;;;;7.60;1.53;;;;;;;;;;4984564;28;23267;-73
2022/07/10 01:41:59;;;;;;;3.33;1.30;;;;;;;;;;4999177;28;20702;-74
2022/07/10 01:44:43;;;;;;;8.53;1.63;;;;;;;;;;4998609;28;20260;-74
2022/07/10 01:47:10;;;;;;;5.17;1.40;;;;;;;;;;4980584;28;20237;-74
2022/07/10 01:49:55;;;;;;;5.47;1.30;;;;;;;;;;4982854;28;20425;-74
2022/07/10 01:52:21;;;;;;;6.57;1.87;;;;;;;;;;4999408;28;20309;-75
2022/07/10 01:55:06;;;;;;;6.43;1.50;;;;;;;;;;4971774;28;20231;-74
2022/07/10 01:57:33;;;;;;;8.20;1.63;;;;;;;;;;4996229;28;20255;-74
2022/07/10 02:00:17;;;;;;;4.70;1.57;;;;;;;;;;4983610;28;20272;-74
2022/07/10 02:04:40;;;;;;;5.97;1.67;;;;;;;;;;4983039;28;20322;-74
2022/07/10 02:05:31;;;;;;;6.40;1.60;;;;;;;;;;4968660;28;20227;-74
2022/07/10 02:07:59;;;;;;;4.60;1.63;;;;;;;;;;5000825;28;20742;-74
2022/07/10 02:10:44;;;;;;;5.83;1.67;;;;;;;;;;4941013;28;20254;-74
2022/07/10 02:13:14;;;;;;;4.03;1.37;;;;;;;;;;4999358;28;20414;-74
2022/07/10 02:15:41;;;;;;;9.60;1.80;;;;;;;;;;4958216;28;20326;-74
2022/07/10 02:18:08;;;;;;;7.37;1.63;;;;;;;;;;4998881;28;20234;-74
2022/07/10 02:20:35;;;;;;;5.10;1.33;;;;;;;;;;4998943;28;25789;-74
2022/07/10 02:23:02;;;;;;;6.83;1.87;;;;;;;;;;4990474;28;20237;-75
2022/07/10 02:25:29;;;;;;;6.90;1.87;;;;;;;;;;4986009;28;20308;-74
2022/07/10 02:27:55;;;;;;;5.83;1.43;;;;;;;;;;5002312;28;20321;-74
2022/07/10 02:30:23;;;;;;;3.97;1.73;;;;;;;;;;5003798;28;25450;-73
2022/07/10 02:32:49;;;;;;;5.33;1.30;;;;;;;;;;5002624;28;20306;-74
2022/07/10 02:35:34;;;;;;;5.13;1.43;;;;;;;;;;4995135;28;20229;-74
2022/07/10 02:38:01;;;;;;;7.33;1.67;;;;;;;;;;4970817;28;20302;-75
2022/07/10 02:40:27;;;;;;;6.83;1.50;;;;;;;;;;5002099;28;20239;-74
2022/07/10 02:42:54;;;;;;;7.07;1.73;;;;;;;;;;5002019;28;20694;-74
2022/07/10 02:45:21;;;;;;;7.70;1.60;;;;;;;;;;4989326;28;20312;-74
2022/07/10 02:47:47;;;;;;;6.53;1.83;;;;;;;;;;5006847;28;20231;-74
2022/07/10 02:50:14;;;;;;;4.40;1.67;;;;;;;;;;5001520;28;21067;-74
2022/07/10 02:52:41;;;;;;;5.50;1.63;;;;;;;;;;4972363;28;20285;-74
2022/07/10 02:55:08;;;;;;;6.17;1.70;;;;;;;;;;4995056;28;231965;-74
2022/07/10 02:57:35;;;;;;;9.93;1.50;;;;;;;;;;4987983;28;20231;-73
2022/07/10 03:00:02;;;;;;;6.63;1.97;;;;;;;;;;5001997;28;20251;-73
2022/07/10 03:02:28;;;;;;;7.03;1.60;;;;;;;;;;5004101;28;20227;-75
2022/07/10 03:04:55;;;;;;;6.60;2.00;;;;;;;;;;5001363;28;20220;-74
2022/07/10 03:07:22;;;;;;;7.03;1.93;;;;;;;;;;5000653;28;20227;-74
2022/07/10 03:09:49;;;;;;;4.83;1.80;;;;;;;;;;4995381;28;20227;-73
2022/07/10 03:12:15;;;;;;;5.97;1.80;;;;;;;;;;5000220;28;20234;-74
2022/07/10 03:14:42;;;;;;;5.27;1.70;;;;;;;;;;4999043;28;20235;-74
2022/07/10 03:17:09;;;;;;;7.63;1.87;;;;;;;;;;5001947;28;20245;-74
2022/07/10 03:19:54;;;;;;;4.77;1.83;;;;;;;;;;4970221;28;20258;-73
2022/07/10 03:22:21;;;;;;;6.57;2.20;;;;;;;;;;4986990;28;20505;-73
2022/07/10 03:25:05;;;;;;;10.13;2.23;;;;;;;;;;5001411;28;20234;-73
2022/07/10 03:27:32;;;;;;;8.70;2.50;;;;;;;;;;4996965;28;20318;-73
2022/07/10 03:29:58;;;;;;;6.30;1.90;;;;;;;;;;4995619;28;20235;-73
2022/07/10 03:32:25;;;;;;;7.00;2.30;;;;;;;;;;4999800;28;20231;-74
2022/07/10 03:34:52;;;;;;;9.83;2.17;;;;;;;;;;5000413;28;20702;-74
2022/07/10 03:37:19;;;;;;;7.60;2.40;;;;;;;;;;5002511;28;20222;-74
2022/07/10 03:39:45;;;;;;;9.87;2.70;;;;;;;;;;5000866;28;20235;-73
2022/07/10 03:42:12;;;;;;;7.13;2.53;;;;;;;;;;4999512;28;20302;-73
2022/07/10 03:44:39;;;;;;;5.60;1.90;;;;;;;;;;4999321;28;20314;-73
2022/07/10 03:47:23;;;;;;;9.93;2.13;;;;;;;;;;4984774;28;20640;-73
2022/07/10 03:49:50;;;;;;;9.20;2.40;;;;;;;;;;4981614;28;20259;-72
2022/07/10 03:52:17;;;;;;;7.33;2.30;;;;;;;;;;5001849;28;20712;-74
2022/07/10 03:54:44;;;;;;;7.70;2.03;;;;;;;;;;4998657;28;20564;-72
2022/07/10 03:59:56;;;;;;;8.57;2.33;;;;;;;;;;4981790;28;20230;-72
2022/07/10 04:02:23;;;;;;;6.13;1.87;;;;;;;;;;4984704;28;20631;-71
2022/07/10 04:04:51;;;;;;;6.37;2.40;;;;;;;;;;5001256;28;20689;-71
2022/07/10 04:07:18;;;;;;;5.43;1.80;;;;;;;;;;4999232;28;20535;-71
2022/07/10 04:09:45;;;;;;;5.57;2.03;;;;;;;;;;4998510;28;20265;-72
2022/07/10 04:12:12;;;;;;;3.73;1.80;;;;;;;;;;5001735;28;22014;-71
2022/07/10 04:14:56;;;;;;;10.10;1.93;;;;;;;;;;4998617;28;20227;-72
2022/07/10 04:17:22;;;;;;;8.83;2.13;;;;;;;;;;4991753;28;217508;-70
2022/07/10 04:19:49;;;;;;;6.10;1.70;;;;;;;;;;4995615;28;20239;-71
2022/07/10 04:22:16;;;;;;;8.70;1.67;;;;;;;;;;4999556;28;20317;-70
2022/07/10 04:24:43;;;;;;;6.27;1.70;;;;;;;;;;4993930;28;20254;-72
2022/07/10 04:27:10;;;;;;;6.57;1.77;;;;;;;;;;5001089;28;20242;-71
2022/07/10 04:29:36;;;;;;;7.27;2.00;;;;;;;;;;4991609;28;217689;-71
2022/07/10 04:32:03;;;;;;;3.57;1.57;;;;;;;;;;5000019;28;20238;-71
2022/07/10 04:34:30;;;;;;;4.63;1.60;;;;;;;;;;4991246;28;227078;-72
2022/07/10 04:37:15;;;;;;;6.33;1.97;;;;;;;;;;4970592;28;20214;-71
2022/07/10 04:39:41;;;;;;;4.27;1.90;;;;;;;;;;4996609;28;23741;-72
2022/07/10 04:42:08;;;;;;;7.13;1.53;;;;;;;;;;4950771;28;220731;-72
2022/07/10 04:44:36;;;;;;;6.10;1.77;;;;;;;;;;4972340;28;21132;-73
2022/07/10 04:47:03;;;;;;;7.30;1.87;;;;;;;;;;4952750;28;20254;-69
2022/07/10 04:49:31;;;;;;;5.93;2.00;;;;;;;;;;4928453;28;20808;-70
2022/07/10 04:51:57;;;;;;;6.63;1.47;;;;;;;;;;4972449;28;22483;-70
2022/07/10 04:54:24;;;;;;;3.93;1.50;;;;;;;;;;4894899;28;260669;-73
2022/07/10 04:56:52;;;;;;;7.13;1.63;;;;;;;;;;4945606;28;20230;-71
2022/07/10 04:59:36;;;;;;;7.20;1.40;;;;;;;;;;4968380;28;26865;-73
2022/07/10 05:02:03;;;;;;;7.00;1.43;;;;;;;;;;4947077;28;250045;-74
2022/07/10 05:04:30;;;;;;;4.73;1.63;;;;;;;;;;4953844;28;243610;-73
2022/07/10 05:06:57;;;;;;;4.70;1.40;;;;;;;;;;4962141;28;20227;-75
2022/07/10 05:09:23;;;;;;;5.97;1.47;;;;;;;;;;4932845;28;241970;-73
2022/07/10 05:11:50;;;;;;;4.10;1.40;;;;;;;;;;4922632;28;222066;-73
2022/07/10 05:14:17;;;;;;;5.10;1.40;;;;;;;;;;4992649;28;20317;-71
2022/07/10 05:16:44;;;;;;;4.47;1.50;;;;;;;;;;4960970;28;242396;-73
2022/07/10 05:19:11;;;;;;;4.67;1.33;;;;;;;;;;4953886;28;238739;-71
2022/07/10 05:21:38;;;;;;;6.60;1.20;;;;;;;;;;4940705;28;20284;-72
2022/07/10 05:24:05;;;;;;;4.27;1.40;;;;;;;;;;4947263;28;34134;-71
2022/07/10 05:26:31;;;;;;;3.47;1.20;;;;;;;;;;4945713;28;20238;-74
2022/07/10 05:28:58;;;;;;;4.10;1.30;;;;;;;;;;4984051;28;229847;-72
2022/07/10 05:31:25;;;;;;;7.90;1.40;;;;;;;;;;4994276;28;20231;-72
2022/07/10 05:33:52;;;;;;;2.50;1.00;;;;;;;;;;4984973;28;219415;-71
2022/07/10 05:36:19;;;;;;;5.73;1.10;;;;;;;;;;4973165;28;20242;-71
2022/07/10 05:38:46;;;;;;;3.83;1.27;;;;;;;;;;4928962;28;213599;-71
2022/07/10 05:41:13;;;;;;;3.57;1.00;;;;;;;;;;4954122;28;213324;-73
2022/07/10 05:43:42;;;;;;;4.30;1.40;;;;;;;;;;4948458;28;22247;-71
2022/07/10 05:46:16;;;;;;;4.17;1.30;;;;;;;;;;4967254;28;61300;-72
2022/07/10 05:48:43;;;;;;;3.67;1.30;;;;;;;;;;4915556;28;28632;-71
2022/07/10 05:51:10;;;;;;;4.33;1.60;;;;;;;;;;4980034;28;28592;-70
2022/07/10 05:53:57;;;;;;;4.43;1.20;;;;;;;;;;4957841;28;20392;-71
2022/07/10 05:56:27;;;;;;;5.27;1.40;;;;;;;;;;4962573;28;241666;-72
2022/07/10 05:58:55;;;;;;;4.63;1.33;;;;;;;;;;4963385;28;26994;-73
2022/07/10 06:01:22;;;;;;;4.77;1.30;;;;;;;;;;4958426;28;232465;-71
2022/07/10 06:03:49;;;;;;;4.83;1.40;;;;;;;;;;4991551;28;21544;-73
2022/07/10 06:06:16;;;;;;;6.93;1.67;;;;;;;;;;4935190;28;20579;-73
2022/07/10 06:08:44;;;;;;;4.60;1.50;;;;;;;;;;4982424;28;20668;-74
2022/07/10 06:11:28;;;;;;;6.03;1.60;;;;;;;;;;4961378;28;20230;-75
2022/07/10 06:13:56;;;;;;;7.03;1.50;;;;;;;;;;4970791;28;222206;-72
2022/07/10 06:16:23;;;;;;;3.93;1.40;;;;;;;;;;4942141;28;216463;-72
2022/07/10 06:18:50;;;;;;;3.57;1.37;;;;;;;;;;4977881;28;25184;-71
2022/07/10 06:21:21;;;;;;;4.43;1.53;;;;;;;;;;4951796;28;20678;-72
2022/07/10 06:23:48;;;;;;;5.37;1.40;;;;;;;;;;4996036;28;20293;-72
2022/07/10 06:26:15;;;;;;;5.87;1.57;;;;;;;;;;4783432;28;5089077;-71
2022/07/10 06:28:42;;;;;;;4.60;1.60;;;;;;;;;;4994431;28;20245;-72
2022/07/10 06:31:09;;;;;;;7.37;1.90;;;;;;;;;;4927500;28;20606;-73
2022/07/10 06:33:36;;;;;;;2.90;1.33;;;;;;;;;;4928778;28;20236;-74
2022/07/10 06:36:03;;;;;;;4.83;1.53;;;;;;;;;;4971619;28;669810;-73
2022/07/10 06:38:30;;;;;;;3.97;1.40;;;;;;;;;;4944875;28;21026;-71
2022/07/10 06:40:57;;;;;;;5.10;1.20;;;;;;;;;;4979002;28;21127;-72
2022/07/10 06:43:23;;;;;;;3.10;1.23;;;;;;;;;;4950351;28;226646;-71
2022/07/10 06:45:52;;;;;;;4.57;1.23;;;;;;;;;;4920374;28;228490;-73
2022/07/10 06:48:20;;;;;;;4.67;1.30;;;;;;;;;;4961975;28;212910;-72
2022/07/10 06:50:47;;;;;;;4.80;1.27;;;;;;;;;;4918480;28;40215;-71
2022/07/10 06:53:15;;;;;;;3.83;1.27;;;;;;;;;;4879436;28;213979;-73
2022/07/10 06:55:42;;;;;;;6.13;1.60;;;;;;;;;;4960157;28;42467;-72
2022/07/10 06:58:09;;;;;;;4.50;1.40;;;;;;;;;;4968883;28;20311;-73
2022/07/10 07:00:36;;;;;;;3.23;1.17;;;;;;;;;;4965838;28;232079;-71
2022/07/10 07:03:03;;;;;;;5.67;1.80;;;;;;;;;;4992788;28;20754;-71
2022/07/10 07:05:30;;;;;;;5.80;1.10;;;;;;;;;;4971832;28;20344;-71
2022/07/10 07:07:57;;;;;;;6.87;1.20;;;;;;;;;;4971728;28;214987;-70
2022/07/10 07:10:24;;;;;;;5.03;0.90;;;;;;;;;;4928300;28;213692;-73
2022/07/10 07:12:51;;;;;;;4.43;1.30;;;;;;;;;;4993927;28;20314;-70
2022/07/10 07:15:20;;;;;;;6.90;1.37;;;;;;;;;;4970760;28;20239;-70
2022/07/10 07:18:12;;;;;;;3.00;1.00;;;;;;;;;;5000601;28;20223;-71
2022/07/10 07:23:42;;;;;;;4.17;1.30;;;;;;;;;;5001948;28;20253;-70
2022/07/10 07:26:09;;;;;;;4.30;1.30;;;;;;;;;;4968918;28;20231;-73
2022/07/10 07:28:36;;;;;;;4.20;1.30;;;;;;;;;;4990839;28;20259;-71
2022/07/10 07:31:03;;;;;;;4.80;1.30;;;;;;;;;;4980162;28;20231;-73
2022/07/10 07:33:32;;;;;;;3.60;1.30;;;;;;;;;;4993922;28;20314;-72
2022/07/10 07:35:59;;;;;;;2.87;1.00;;;;;;;;;;4994737;28;22084;-71
2022/07/10 07:38:26;;;;;;;4.03;1.20;;;;;;;;;;4977955;28;28127;-73
2022/07/10 07:40:52;;;;;;;4.00;1.20;;;;;;;;;;4978525;28;20246;-73
2022/07/10 07:43:20;;;;;;;6.17;1.27;;;;;;;;;;4979072;28;20281;-72
2022/07/10 07:45:47;;;;;;;4.03;1.30;;;;;;;;;;4983339;28;20227;-75
2022/07/10 07:48:14;;;;;;;6.17;1.67;;;;;;;;;;5001847;28;20993;-71
2022/07/10 07:50:41;;;;;;;6.93;1.30;;;;;;;;;;4940778;28;213719;-72
2022/07/10 07:53:08;;;;;;;7.47;1.43;;;;;;;;;;4952957;28;20239;-73
2022/07/10 07:55:35;;;;;;;6.53;1.43;;;;;;;;;;4982216;28;20230;-73
2022/07/10 07:58:19;;;;;;;5.13;1.43;;;;;;;;;;4968433;28;20235;-72
2022/07/10 08:00:46;;;;;;;3.10;1.20;;;;;;;;;;4994209;28;20226;-71
2022/07/10 08:03:13;;;;;;;4.20;1.40;;;;;;;;;;4966267;28;20226;-71
2022/07/10 08:05:40;;;;;;;5.80;1.60;;;;;;;;;;4997164;28;20326;-71
2022/07/10 08:08:08;;;;;;;3.47;1.30;;;;;;;;;;4969077;28;20258;-71
2022/07/10 08:10:35;;;;;;;5.13;1.30;;;;;;;;;;4999032;28;20237;-72
2022/07/10 08:13:10;;;;;;;5.10;1.43;;;;;;;;;;4982398;28;20219;-72
2022/07/10 08:15:38;;;;;;;10.73;1.60;;;;;;;;;;4999756;28;20222;-72
2022/07/10 08:18:07;;;;;;;6.10;1.57;;;;;;;;;;4983293;28;20273;-71
2022/07/10 08:20:33;;;;;;;4.43;1.60;;;;;;;;;;4987366;28;20219;-72
2022/07/10 08:23:01;;;;;;;7.60;1.60;;;;;;;;;;5009166;28;20233;-70
2022/07/10 08:25:29;;;;;;;4.23;1.17;;;;;;;;;;4976950;28;20299;-69
2022/07/10 08:28:01;;;;;;;7.07;1.73;;;;;;;;;;4996696;28;20297;-71
2022/07/10 08:30:30;;;;;;;7.90;1.90;;;;;;;;;;4995075;28;20235;-70
2022/07/10 08:32:56;;;;;;;4.70;1.37;;;;;;;;;;4993338;28;214549;-70
2022/07/10 08:35:23;;;;;;;4.60;1.30;;;;;;;;;;4996067;28;20231;-70
2022/07/10 08:37:50;;;;;;;5.47;1.70;;;;;;;;;;4991660;28;20821;-70
2022/07/10 08:40:18;;;;;;;3.63;1.20;;;;;;;;;;4993954;28;20234;-70
2022/07/10 08:42:47;;;;;;;6.70;1.73;;;;;;;;;;4964670;28;20310;-70
2022/07/10 08:45:14;;;;;;;3.67;1.30;;;;;;;;;;4993473;28;21988;-70
2022/07/10 08:47:44;;;;;;;4.23;1.37;;;;;;;;;;4986955;28;23376;-70
2022/07/10 08:50:31;;;;;;;2.57;1.23;;;;;;;;;;4985623;28;22861;-70
2022/07/10 08:53:07;;;;;;;3.73;1.00;;;;;;;;;;4972338;28;45545;-71
2022/07/10 08:55:35;;;;;;;4.60;1.00;;;;;;;;;;4978659;28;20278;-70
2022/07/10 08:58:04;;;;;;;4.23;1.17;;;;;;;;;;4980352;28;20235;-71
2022/07/10 09:00:31;;;;;;;6.17;1.40;;;;;;;;;;4971743;28;20227;-71
2022/07/10 09:02:59;;;;;;;2.80;1.07;;;;;;;;;;4993456;28;63044;-70
2022/07/10 09:05:27;;;;;;;4.60;1.00;;;;;;;;;;4974845;28;28394;-70
2022/07/10 09:07:54;;;;;;;3.57;1.13;;;;;;;;;;4954559;28;25391;-70
2022/07/10 09:10:23;;;;;;;3.50;1.43;;;;;;;;;;4949894;28;21024;-70
2022/07/10 09:12:59;;;;;;;4.13;0.93;;;;;;;;;;4933360;28;25569;-71
2022/07/10 09:15:31;;;;;;;2.90;1.10;;;;;;;;;;4856400;28;82866;-73
2022/07/10 09:18:01;;;;;;;3.23;1.00;;;;;;;;;;4919991;28;101122;-72
2022/07/10 09:20:35;;;;;;;4.43;1.30;;;;;;;;;;4967692;28;25517;-71
2022/07/10 09:23:15;;;;;;;3.43;0.90;;;;;;;;;;4949157;28;20756;-70
2022/07/10 09:25:42;;;;;;;3.47;1.10;;;;;;;;;;4978590;28;20231;-71
2022/07/10 09:28:09;;;;;;;5.40;1.90;;;;;;;;;;4995200;28;20251;-68
2022/07/10 09:30:37;;;;;;;3.50;1.30;;;;;;;;;;4979830;28;42864;-71
2022/07/10 09:33:25;;;;;;;6.67;1.47;;;;;;;;;;4904996;28;33773;-70
2022/07/10 09:38:43;;;;;;;6.53;1.20;;;;;;;;;;4921653;28;50862;-73
2022/07/10 09:41:13;;;;;;;2.93;1.10;;;;;;;;;;4912575;28;35421;-71
2022/07/10 09:43:46;;;;;;;6.03;0.93;;;;;;;;;;4950878;28;51720;-72
2022/07/10 09:46:13;;;;;;;4.83;1.10;;;;;;;;;;4957819;28;25265;-70
2022/07/10 09:48:43;;;;;;;4.93;1.20;;;;;;;;;;4767855;28;5093220;-70
2022/07/10 09:51:10;;;;;;;3.20;0.90;;;;;;;;;;4952433;28;44126;-72
2022/07/10 09:53:39;;;;;;;4.57;1.03;;;;;;;;;;4959658;28;20714;-70
2022/07/10 09:56:07;;;;;;;5.10;1.27;;;;;;;;;;4951453;28;28119;-72
2022/07/10 09:58:35;;;;;;;4.67;1.10;;;;;;;;;;4964533;28;20223;-71
2022/07/10 10:01:03;;;;;;;5.17;1.30;;;;;;;;;;4978918;28;23661;-74
2022/07/10 10:03:33;;;;;;;8.43;1.33;;;;;;;;;;4990797;28;21641;-71
2022/07/10 10:06:05;;;;;;;2.90;1.10;;;;;;;;;;4956715;28;42951;-71
2022/07/10 10:08:44;;;;;;;4.47;1.10;;;;;;;;;;4960979;28;20849;-73
2022/07/10 10:11:15;;;;;;;6.23;1.53;;;;;;;;;;4970676;28;62432;-72
2022/07/10 10:13:42;;;;;;;6.40;1.30;;;;;;;;;;4948821;28;20300;-76
2022/07/10 10:16:09;;;;;;;4.30;1.10;;;;;;;;;;4981332;28;33309;-71
2022/07/10 10:18:36;;;;;;;3.27;1.00;;;;;;;;;;4954814;28;20251;-72
2022/07/10 10:21:06;;;;;;;5.83;1.27;;;;;;;;;;4952327;28;21499;-71
2022/07/10 10:23:34;;;;;;;5.23;1.20;;;;;;;;;;4961457;28;20686;-73
2022/07/10 10:26:01;;;;;;;4.33;1.00;;;;;;;;;;4994737;28;45481;-68
2022/07/10 10:28:28;;;;;;;3.90;1.03;;;;;;;;;;5001457;28;20757;-70
2022/07/10 10:30:55;;;;;;;3.87;1.13;;;;;;;;;;4956918;28;21104;-72
2022/07/10 10:33:32;;;;;;;5.93;1.10;;;;;;;;;;4965956;28;28211;-75
2022/07/10 10:36:05;;;;;;;5.63;1.23;;;;;;;;;;4980508;28;26928;-71
2022/07/10 10:38:55;;;;;;;4.63;1.00;;;;;;;;;;4981398;28;20230;-70
2022/07/10 10:41:23;;;;;;;5.90;1.10;;;;;;;;;;4942227;28;43217;-70
2022/07/10 10:44:10;;;;;;;6.20;1.10;;;;;;;;;;4934975;28;40716;-66
2022/07/10 10:46:54;;;;;;;3.33;1.20;;;;;;;;;;5000721;28;20246;-65
2022/07/10 10:49:22;;;;;;;3.87;0.90;;;;;;;;;;4996008;28;20346;-65
2022/07/10 10:52:07;;;;;;;4.97;1.90;;;;;;;;;;4963655;28;20717;-65
2022/07/10 10:55:18;;;;;;;3.13;1.07;;;;;;;;;;4990572;28;20246;-66
2022/07/10 10:57:45;;;;;;;6.63;1.10;;;;;;;;;;5002713;28;20314;-65
2022/07/10 11:00:14;;;;;;;4.10;1.23;;;;;;;;;;5001192;28;20234;-66
2022/07/10 11:02:44;;;;;;;5.30;1.10;;;;;;;;;;4980137;28;20240;-66
2022/07/10 11:05:11;;;;;;;2.67;0.73;;;;;;;;;;4996644;28;20317;-65
2022/07/10 11:07:56;;;;;;;4.20;0.93;;;;;;;;;;4980392;28;20277;-66
2022/07/10 11:10:27;;;;;;;3.03;0.90;;;;;;;;;;4996785;28;20242;-65
2022/07/10 11:13:07;;;;;;;3.30;1.00;;;;;;;;;;4982597;28;20222;-65
2022/07/10 11:15:38;;;;;;;3.53;1.10;;;;;;;;;;4983452;28;20308;-66
2022/07/10 11:18:05;;;;;;;3.03;0.90;;;;;;;;;;4999758;28;20345;-65
2022/07/10 11:20:36;;;;;;;4.93;1.20;;;;;;;;;;5002517;28;20369;-65
2022/07/10 11:23:21;;;;;;;4.93;0.97;;;;;;;;;;4997594;28;20238;-65
2022/07/10 11:26:12;;;;;;;6.13;1.00;;;;;;;;;;5000154;28;20691;-65
2022/07/10 11:28:52;;;;;;;2.23;0.90;;;;;;;;;;4981920;28;20258;-67
2022/07/10 11:31:44;;;;;;;4.00;1.03;;;;;;;;;;4998450;28;20289;-65
2022/07/10 11:34:11;;;;;;;6.80;1.30;;;;;;;;;;4983254;28;20219;-65
2022/07/10 11:36:38;;;;;;;2.97;1.20;;;;;;;;;;4998140;28;21394;-65
2022/07/10 11:39:06;;;;;;;4.67;1.00;;;;;;;;;;4999520;28;20234;-65
2022/07/10 11:41:33;;;;;;;3.20;1.13;;;;;;;;;;5001994;28;20421;-65
2022/07/10 11:44:01;;;;;;;2.73;0.90;;;;;;;;;;4995340;28;20239;-65
2022/07/10 11:46:32;;;;;;;3.07;0.80;;;;;;;;;;5002935;28;20661;-65
2022/07/10 11:49:03;;;;;;;2.63;0.63;;;;;;;;;;4982616;28;20231;-65
2022/07/10 11:51:30;;;;;;;1.90;0.70;;;;;;;;;;5000066;28;20363;-65
2022/07/10 11:54:07;;;;;;;2.03;0.80;;;;;;;;;;4983399;28;31396;-65
2022/07/10 11:56:35;;;;;;;2.50;0.67;;;;;;;;;;4981915;28;20216;-65
2022/07/10 11:59:08;;;;;;;2.60;1.20;;;;;;;;;;4989299;28;20234;-65
2022/07/10 12:01:40;;;;;;;2.43;0.90;;;;;;;;;;4999168;28;22377;-65
2022/07/10 12:04:08;;;;;;;3.47;0.90;;;;;;;;;;4981845;28;20234;-65
2022/07/10 12:06:36;;;;;;;2.93;0.63;;;;;;;;;;4999005;28;20957;-66
2022/07/10 12:09:03;;;;;;;4.10;0.70;;;;;;;;;;5001637;28;20227;-65
2022/07/10 12:11:30;;;;;;;3.37;1.00;;;;;;;;;;4999174;28;25576;-65
2022/07/10 12:14:11;;;;;;;3.33;0.87;;;;;;;;;;5001459;28;20230;-65
2022/07/10 12:16:38;;;;;;;2.50;0.97;;;;;;;;;;5000918;28;20235;-65
2022/07/10 12:19:05;;;;;;;4.33;0.80;;;;;;;;;;4981584;28;20230;-65
2022/07/10 12:21:32;;;;;;;4.33;0.83;;;;;;;;;;4984098;28;20371;-65
2022/07/10 12:24:02;;;;;;;2.00;0.60;;;;;;;;;;4999360;28;20230;-65
2022/07/10 12:26:32;;;;;;;2.23;0.70;;;;;;;;;;4985785;28;20698;-64
2022/07/10 12:28:59;;;;;;;4.20;1.10;;;;;;;;;;4999600;28;20308;-66
2022/07/10 12:31:27;;;;;;;5.90;1.07;;;;;;;;;;5000929;28;20247;-66
2022/07/10 12:34:03;;;;;;;4.70;1.03;;;;;;;;;;4998434;28;20316;-63
2022/07/10 12:36:45;;;;;;;6.00;0.80;;;;;;;;;;4969954;28;20246;-65
2022/07/10 12:39:13;;;;;;;3.20;0.80;;;;;;;;;;4982125;28;20324;-65
2022/07/10 12:41:56;;;;;;;3.23;0.70;;;;;;;;;;4983827;28;20369;-67
2022/07/10 12:44:30;;;;;;;1.77;0.70;;;;;;;;;;4980327;28;20215;-68
2022/07/10 12:47:19;;;;;;;3.90;0.90;;;;;;;;;;4998266;28;20223;-68
2022/07/10 12:50:06;;;;;;;2.73;0.70;;;;;;;;;;4994755;28;20317;-67
2022/07/10 12:52:35;;;;;;;3.07;0.50;;;;;;;;;;4978813;28;20223;-67
2022/07/10 12:55:25;;;;;;;2.20;0.70;;;;;;;;;;4995852;28;20309;-69
2022/07/10 12:57:53;;;;;;;3.37;1.00;;;;;;;;;;4932103;28;39072;-70
2022/07/10 13:00:21;;;;;;;2.57;0.90;;;;;;;;;;4928977;28;21727;-73
2022/07/10 13:02:53;;;;;;;3.93;0.60;;;;;;;;;;4884331;28;219182;-69
2022/07/10 13:05:27;;;;;;;2.40;1.03;;;;;;;;;;4901502;28;20238;-71
2022/07/10 13:08:05;;;;;;;5.60;0.80;;;;;;;;;;4896717;28;34552;-70
2022/07/10 13:10:34;;;;;;;5.93;1.27;;;;;;;;;;4965372;28;221977;-71
2022/07/10 13:13:00;;;;;;;5.70;1.40;;;;;;;;;;4995550;28;20698;-67
2022/07/10 13:15:29;;;;;;;5.00;1.30;;;;;;;;;;4998921;28;20227;-68
2022/07/10 13:17:56;;;;;;;6.37;1.20;;;;;;;;;;4998568;28;20239;-68
2022/07/10 13:20:23;;;;;;;3.53;1.10;;;;;;;;;;5000152;28;20227;-67
2022/07/10 13:22:50;;;;;;;1.83;0.80;;;;;;;;;;4999042;28;20243;-67
2022/07/10 13:25:16;;;;;;;3.87;1.30;;;;;;;;;;4999793;28;20306;-68
2022/07/10 13:27:45;;;;;;;3.30;0.70;;;;;;;;;;4998273;28;20316;-67
2022/07/10 13:30:11;;;;;;;2.60;0.87;;;;;;;;;;5000551;28;20235;-66
2022/07/10 13:32:38;;;;;;;3.67;0.70;;;;;;;;;;4998448;28;20265;-67
2022/07/10 13:35:07;;;;;;;2.03;0.60;;;;;;;;;;4998228;28;20219;-67
2022/07/10 13:37:34;;;;;;;4.40;0.73;;;;;;;;;;4970305;28;21039;-67
2022/07/10 13:40:01;;;;;;;2.00;0.67;;;;;;;;;;4998553;28;20615;-67
2022/07/10 13:42:28;;;;;;;4.20;0.80;;;;;;;;;;4998841;28;20227;-67
2022/07/10 13:44:55;;;;;;;2.30;0.60;;;;;;;;;;4998715;28;20215;-68
2022/07/10 13:47:22;;;;;;;3.60;0.90;;;;;;;;;;4967621;28;20235;-67
2022/07/10 13:49:49;;;;;;;1.63;0.70;;;;;;;;;;4989099;28;20223;-69
2022/07/10 13:52:16;;;;;;;3.47;0.70;;;;;;;;;;4946508;28;213978;-71
2022/07/10 13:54:42;;;;;;;4.60;1.20;;;;;;;;;;4990392;28;20756;-67
2022/07/10 13:57:11;;;;;;;3.07;0.73;;;;;;;;;;4961439;28;20227;-68
2022/07/10 13:59:38;;;;;;;2.43;0.83;;;;;;;;;;4980440;28;20227;-68
2022/07/10 14:02:05;;;;;;;3.27;0.80;;;;;;;;;;4991386;28;20239;-68
2022/07/10 14:04:32;;;;;;;3.60;1.57;;;;;;;;;;4989945;28;20233;-67
2022/07/10 14:06:59;;;;;;;2.87;0.63;;;;;;;;;;4977345;28;20300;-69
2022/07/10 14:09:27;;;;;;;3.10;0.80;;;;;;;;;;4979627;28;22359;-69
2022/07/10 14:11:54;;;;;;;3.00;0.80;;;;;;;;;;4995577;28;20235;-66
2022/07/10 14:14:39;;;;;;;1.53;0.60;;;;;;;;;;4994710;28;20250;-68
2022/07/10 14:17:06;;;;;;;2.30;0.90;;;;;;;;;;5000020;28;20230;-67
2022/07/10 14:19:33;;;;;;;2.53;0.80;;;;;;;;;;4998080;28;20243;-67
2022/07/10 14:21:59;;;;;;;2.67;0.77;;;;;;;;;;4988760;28;20301;-67
2022/07/10 14:24:27;;;;;;;3.57;0.90;;;;;;;;;;5002547;28;20235;-67
2022/07/10 14:26:55;;;;;;;2.10;0.60;;;;;;;;;;5002050;28;20321;-69
2022/07/10 14:29:22;;;;;;;3.33;0.60;;;;;;;;;;4993901;28;20302;-68
2022/07/10 14:31:49;;;;;;;2.17;0.50;;;;;;;;;;4984798;28;21049;-68
2022/07/10 14:34:16;;;;;;;1.13;0.60;;;;;;;;;;5003503;28;20227;-68
2022/07/10 14:36:44;;;;;;;2.63;0.50;;;;;;;;;;5001101;28;20235;-67
2022/07/10 14:39:18;;;;;;;1.30;0.40;;;;;;;;;;4985586;28;20239;-68
2022/07/10 14:41:45;;;;;;;1.93;0.50;;;;;;;;;;5003343;28;20227;-68
2022/07/10 14:44:11;;;;;;;2.00;0.60;;;;;;;;;;5000251;28;20246;-67
2022/07/10 14:46:56;;;;;;;1.20;0.50;;;;;;;;;;4985559;28;20276;-67
2022/07/10 14:49:23;;;;;;;2.93;0.50;;;;;;;;;;4981359;28;20663;-71
2022/07/10 14:51:54;;;;;;;2.13;0.70;;;;;;;;;;4969851;28;20250;-67
2022/07/10 14:54:21;;;;;;;2.43;0.70;;;;;;;;;;4992014;28;212121;-68
2022/07/10 14:56:48;;;;;;;1.70;0.50;;;;;;;;;;5002347;28;20863;-67
2022/07/10 14:59:15;;;;;;;1.03;0.50;;;;;;;;;;5001285;28;20231;-68
2022/07/10 15:01:42;;;;;;;3.40;0.57;;;;;;;;;;5001646;28;20232;-67
2022/07/10 15:04:09;;;;;;;0.60;0.43;;;;;;;;;;5000899;28;20238;-67